Time;durP1;ratioP1;P1;durP2;ratioP2;P2;SDS_P1;SDS_P2;PMS_P1;PMS_P2;Temp;Humidity;BMP_temperature;BMP_pressure;BME280_temperature;BME280_humidity;BME280_pressure;Samples;Min_cycle;Max_cycle;Signal;HPM_P1;HPM_P2
2023/05/15 00:00:00;;;;;;;16.40;8.57;;;15.80;99.90;;;;;;5017716;28;20033;-59
2023/05/15 00:02:26;;;;;;;11.40;7.72;;;15.80;99.90;;;;;;5017544;28;20029;-60
2023/05/15 00:04:52;;;;;;;11.55;7.38;;;15.80;99.90;;;;;;5017720;28;20447;-60
2023/05/15 00:07:18;;;;;;;8.75;7.20;;;15.60;99.90;;;;;;5017775;28;20034;-60
2023/05/15 00:09:44;;;;;;;8.48;7.03;;;15.60;99.90;;;;;;5017430;28;20022;-60
2023/05/15 00:12:10;;;;;;;9.48;6.60;;;15.50;99.90;;;;;;5017288;28;20037;-60
2023/05/15 00:14:36;;;;;;;8.32;5.53;;;15.50;99.90;;;;;;5017488;28;20018;-60
2023/05/15 00:17:02;;;;;;;16.08;5.63;;;15.50;99.90;;;;;;5017352;28;20034;-59
2023/05/15 00:19:28;;;;;;;10.07;4.72;;;15.40;99.90;;;;;;5017411;28;20088;-58
2023/05/15 00:21:54;;;;;;;5.47;3.38;;;15.30;99.90;;;;;;5017448;28;20026;-59
2023/05/15 00:24:21;;;;;;;7.60;2.95;;;15.20;99.90;;;;;;5017019;28;20475;-59
2023/05/15 00:26:47;;;;;;;5.78;2.75;;;15.10;99.90;;;;;;5017266;28;20025;-59
2023/05/15 00:29:13;;;;;;;10.57;2.45;;;15.10;99.90;;;;;;5017235;28;20026;-59
2023/05/15 00:31:39;;;;;;;3.08;1.70;;;15.00;99.90;;;;;;4999651;28;20030;-59
2023/05/15 00:34:05;;;;;;;4.38;2.33;;;15.00;99.90;;;;;;5017153;28;20030;-59
2023/05/15 00:36:31;;;;;;;4.95;2.40;;;14.90;99.90;;;;;;5017195;28;20029;-58
2023/05/15 00:38:57;;;;;;;7.40;3.17;;;14.80;99.90;;;;;;5017006;28;20030;-59
2023/05/15 00:41:27;;;;;;;12.13;3.08;;;14.70;99.90;;;;;;4999460;28;20034;-59
2023/05/15 00:43:54;;;;;;;4.25;2.58;;;14.80;99.90;;;;;;5016752;28;20390;-59
2023/05/15 00:46:22;;;;;;;8.05;3.10;;;14.80;99.90;;;;;;4999269;28;20390;-59
2023/05/15 00:48:49;;;;;;;9.85;3.60;;;14.70;99.90;;;;;;4999294;28;20480;-59
2023/05/15 00:51:17;;;;;;;10.32;3.42;;;14.70;99.90;;;;;;5016763;28;20057;-59
2023/05/15 00:53:43;;;;;;;5.47;2.47;;;14.70;99.90;;;;;;4999251;28;20080;-59
2023/05/15 00:56:11;;;;;;;7.93;2.10;;;14.70;99.90;;;;;;5016877;28;20376;-59
2023/05/15 00:58:38;;;;;;;15.93;3.30;;;14.80;99.90;;;;;;4999091;28;20030;-59
2023/05/15 01:01:05;;;;;;;22.58;3.55;;;14.60;99.90;;;;;;5016585;28;20467;-59
2023/05/15 01:03:31;;;;;;;4.63;1.90;;;14.50;99.90;;;;;;4999030;28;20491;-59
2023/05/15 01:05:59;;;;;;;4.30;1.58;;;14.50;99.90;;;;;;4998263;28;20475;-59
2023/05/15 01:08:44;;;;;;;4.80;1.92;;;14.40;99.90;;;;;;5016581;28;20385;-59
2023/05/15 01:11:12;;;;;;;4.45;1.95;;;14.40;99.90;;;;;;4998975;28;20095;-59
2023/05/15 01:13:39;;;;;;;6.88;2.03;;;14.40;99.90;;;;;;5016481;28;20034;-59
2023/05/15 01:16:06;;;;;;;9.45;1.95;;;14.40;99.90;;;;;;5016382;28;20090;-59
2023/05/15 01:18:34;;;;;;;14.20;2.78;;;14.40;99.90;;;;;;5016366;28;20080;-59
2023/05/15 01:21:18;;;;;;;12.93;4.15;;;14.40;99.90;;;;;;4998590;28;20065;-59
2023/05/15 01:24:17;;;;;;;18.17;8.13;;;14.30;99.90;;;;;;5016277;28;20022;-59
2023/05/15 01:27:17;;;;;;;66.03;26.55;;;14.20;99.90;;;;;;4998429;28;20052;-58
2023/05/15 01:29:44;;;;;;;78.60;26.30;;;14.10;99.90;;;;;;5016170;28;20030;-59
2023/05/15 01:32:22;;;;;;;56.25;18.20;;;14.10;99.90;;;;;;5016191;28;20033;-60
2023/05/15 01:35:21;;;;;;;42.70;16.10;;;14.10;99.90;;;;;;5015937;28;20479;-59
2023/05/15 01:37:53;;;;;;;38.38;13.93;;;14.00;99.90;;;;;;4998316;28;20030;-59
2023/05/15 01:40:23;;;;;;;37.13;11.52;;;14.00;99.90;;;;;;5015790;28;20041;-60
2023/05/15 01:43:00;;;;;;;37.42;12.32;;;14.00;99.90;;;;;;4998272;28;20034;-59
2023/05/15 01:45:27;;;;;;;28.73;10.10;;;14.00;99.90;;;;;;4998132;28;20068;-59
2023/05/15 01:47:55;;;;;;;15.30;5.95;;;13.90;99.90;;;;;;5015796;28;20101;-60
2023/05/15 01:50:21;;;;;;;16.73;6.88;;;14.00;99.90;;;;;;4998070;28;20402;-59
2023/05/15 01:52:52;;;;;;;15.18;6.18;;;14.00;99.90;;;;;;5015743;28;20030;-60
2023/05/15 01:55:20;;;;;;;10.65;4.18;;;13.90;99.90;;;;;;5015640;28;20030;-59
2023/05/15 01:57:47;;;;;;;9.05;3.95;;;13.90;99.90;;;;;;4997991;28;20113;-59
2023/05/15 02:00:14;;;;;;;8.25;4.15;;;14.00;99.90;;;;;;4997970;28;20084;-60
2023/05/15 02:02:41;;;;;;;5.40;2.63;;;14.10;99.90;;;;;;5015632;28;20037;-60
2023/05/15 02:05:09;;;;;;;3.03;1.88;;;14.00;99.90;;;;;;4997866;28;20058;-59
2023/05/15 02:07:35;;;;;;;1.88;1.20;;;13.90;99.90;;;;;;5015446;28;20050;-60
2023/05/15 02:10:02;;;;;;;1.38;1.10;;;13.90;99.90;;;;;;4997727;28;20042;-59
2023/05/15 02:12:30;;;;;;;3.63;0.80;;;13.90;99.90;;;;;;4997662;28;20045;-60
2023/05/15 02:14:58;;;;;;;1.60;0.98;;;14.00;99.90;;;;;;5015915;28;20367;-59
2023/05/15 02:17:26;;;;;;;2.53;1.00;;;13.90;99.90;;;;;;5014525;28;20046;-59
2023/05/15 02:19:52;;;;;;;4.70;1.00;;;13.90;99.90;;;;;;4997605;28;20042;-60
2023/05/15 02:22:18;;;;;;;1.38;1.02;;;13.80;99.90;;;;;;4997619;28;20030;-60
2023/05/15 02:24:44;;;;;;;1.98;1.25;;;13.80;99.90;;;;;;5015240;28;20450;-60
2023/05/15 02:27:25;;;;;;;2.05;1.20;;;13.80;99.90;;;;;;4997408;28;20057;-60
2023/05/15 02:29:51;;;;;;;;;;;13.80;99.90;;;;;;4998126;28;20117;-60
2023/05/15 02:32:28;;;;;;;3.08;1.20;;;13.70;99.90;;;;;;4997439;28;19963;-60
2023/05/15 02:35:33;;;;;;;4.72;1.10;;;13.90;99.90;;;;;;5015353;28;20072;-59
2023/05/15 02:38:02;;;;;;;2.15;1.05;;;13.90;99.90;;;;;;4997432;28;20041;-60
2023/05/15 02:40:29;;;;;;;1.63;1.17;;;14.00;99.90;;;;;;4997095;28;20036;-59
2023/05/15 02:42:56;;;;;;;3.17;1.10;;;13.90;99.90;;;;;;5015037;28;20026;-59
2023/05/15 02:45:23;;;;;;;6.53;1.77;;;13.90;99.90;;;;;;5014919;28;20053;-59
2023/05/15 02:47:50;;;;;;;3.50;1.30;;;13.80;99.90;;;;;;5014913;28;20097;-59
2023/05/15 02:50:17;;;;;;;5.95;2.00;;;13.80;99.90;;;;;;5014862;28;20044;-59
2023/05/15 02:52:43;;;;;;;5.43;1.85;;;13.80;99.90;;;;;;5014797;28;20096;-59
2023/05/15 02:55:09;;;;;;;4.30;1.63;;;13.80;99.90;;;;;;5014766;28;20036;-60
2023/05/15 02:57:35;;;;;;;3.85;1.20;;;13.80;99.90;;;;;;5014771;28;20033;-60
2023/05/15 03:00:04;;;;;;;2.75;1.60;;;13.80;99.90;;;;;;5014628;28;20044;-59
2023/05/15 03:02:30;;;;;;;3.25;1.23;;;13.80;99.90;;;;;;5014686;28;20081;-59
2023/05/15 03:04:55;;;;;;;3.80;1.60;;;13.80;99.90;;;;;;5014838;28;20026;-60
2023/05/15 03:07:22;;;;;;;5.75;1.80;;;13.80;99.90;;;;;;5014390;28;20415;-59
2023/05/15 03:09:47;;;;;;;2.38;1.42;;;13.80;99.90;;;;;;5014398;28;20026;-59
2023/05/15 03:12:13;;;;;;;3.58;1.33;;;13.80;99.90;;;;;;5014909;28;20033;-60
2023/05/15 03:14:39;;;;;;;6.03;1.30;;;13.80;99.90;;;;;;5014583;28;20026;-60
2023/05/15 03:17:06;;;;;;;2.42;1.10;;;13.80;99.90;;;;;;5014508;28;20045;-60
2023/05/15 03:19:31;;;;;;;3.70;1.20;;;13.80;99.90;;;;;;5014683;28;20080;-59
2023/05/15 03:21:57;;;;;;;7.57;1.48;;;13.80;99.90;;;;;;5014535;28;20033;-60
2023/05/15 03:24:23;;;;;;;5.90;1.40;;;13.80;99.90;;;;;;5014516;28;20080;-59
2023/05/15 03:26:49;;;;;;;1.70;1.10;;;13.70;99.90;;;;;;5014410;28;20364;-60
2023/05/15 03:29:15;;;;;;;3.72;1.40;;;13.80;99.90;;;;;;4998556;28;20030;-59
2023/05/15 03:31:41;;;;;;;4.15;1.27;;;13.80;99.90;;;;;;5018394;28;20029;-60
2023/05/15 03:34:07;;;;;;;1.83;1.30;;;13.80;99.90;;;;;;5018402;28;20030;-60
2023/05/15 03:36:33;;;;;;;5.05;1.20;;;13.90;99.90;;;;;;5018207;28;20084;-59
2023/05/15 03:38:59;;;;;;;2.30;1.35;;;13.90;99.90;;;;;;5018157;28;20061;-59
2023/05/15 03:41:26;;;;;;;4.53;1.70;;;13.90;99.90;;;;;;5018226;28;20041;-59
2023/05/15 03:43:52;;;;;;;3.83;1.30;;;13.90;99.90;;;;;;5017916;28;20034;-60
2023/05/15 03:46:18;;;;;;;2.88;1.70;;;13.90;99.90;;;;;;5017995;28;20026;-60
2023/05/15 03:48:44;;;;;;;3.67;2.15;;;13.80;99.90;;;;;;5000506;28;20117;-59
2023/05/15 03:51:10;;;;;;;6.10;2.50;;;13.90;99.90;;;;;;5017883;28;20530;-59
2023/05/15 03:53:36;;;;;;;7.95;2.42;;;14.00;99.90;;;;;;5017909;28;20042;-59
2023/05/15 03:56:02;;;;;;;5.88;2.55;;;14.10;99.90;;;;;;5000306;28;20153;-59
2023/05/15 03:58:30;;;;;;;5.47;2.50;;;14.00;99.90;;;;;;5017869;28;20026;-59
2023/05/15 04:00:57;;;;;;;5.97;2.10;;;13.90;99.90;;;;;;5017762;28;20029;-59
2023/05/15 04:03:23;;;;;;;7.22;2.63;;;13.90;99.90;;;;;;5017794;28;20431;-59
2023/05/15 04:05:50;;;;;;;8.10;2.78;;;13.90;99.90;;;;;;5017451;28;20069;-59
2023/05/15 04:08:16;;;;;;;9.85;3.30;;;13.80;99.90;;;;;;5017645;28;20030;-59
2023/05/15 04:10:42;;;;;;;9.50;3.55;;;13.90;99.90;;;;;;5017498;28;20025;-59
2023/05/15 04:13:08;;;;;;;8.00;3.72;;;13.90;99.90;;;;;;5017580;28;20368;-59
2023/05/15 04:15:34;;;;;;;5.20;2.83;;;14.00;99.90;;;;;;5017498;28;20041;-59
2023/05/15 04:18:00;;;;;;;6.15;3.00;;;14.10;99.90;;;;;;5017371;28;20030;-59
2023/05/15 04:20:26;;;;;;;5.10;2.65;;;14.10;99.90;;;;;;5017367;28;20033;-59
2023/05/15 04:22:52;;;;;;;7.25;2.72;;;14.10;99.90;;;;;;5017486;28;20053;-59
2023/05/15 04:25:23;;;;;;;5.93;2.33;;;14.10;99.90;;;;;;5017423;28;20033;-59
2023/05/15 04:27:49;;;;;;;5.50;2.20;;;14.00;99.90;;;;;;4997670;28;20034;-59
2023/05/15 04:30:15;;;;;;;6.78;2.58;;;14.00;99.90;;;;;;4997776;28;20534;-59
2023/05/15 04:32:41;;;;;;;7.78;2.80;;;14.10;99.90;;;;;;4997631;28;20035;-59
2023/05/15 04:35:09;;;;;;;4.95;2.28;;;14.00;99.90;;;;;;4996335;28;20030;-60
2023/05/15 04:37:42;;;;;;;3.72;1.40;;;14.10;99.90;;;;;;4997638;28;20132;-59
2023/05/15 04:40:08;;;;;;;3.85;1.63;;;14.00;99.90;;;;;;4996490;28;20109;-59
2023/05/15 04:42:35;;;;;;;6.55;2.38;;;14.00;99.90;;;;;;4997360;28;20033;-59
2023/05/15 04:45:02;;;;;;;9.82;3.05;;;13.90;99.90;;;;;;5007627;28;20080;-59
2023/05/15 04:47:28;;;;;;;5.45;1.60;;;13.90;99.90;;;;;;5016792;28;20032;-59
2023/05/15 04:49:54;;;;;;;8.65;2.08;;;14.00;99.90;;;;;;5016930;28;20025;-59
2023/05/15 04:52:20;;;;;;;6.03;2.20;;;13.90;99.90;;;;;;5016928;28;20033;-59
2023/05/15 04:54:48;;;;;;;6.32;1.60;;;13.90;99.90;;;;;;5016691;28;20026;-59
2023/05/15 04:57:14;;;;;;;6.20;1.55;;;14.00;99.90;;;;;;5016703;28;20407;-59
2023/05/15 04:59:40;;;;;;;5.57;1.77;;;14.00;99.90;;;;;;5016736;28;20032;-59
2023/05/15 05:02:06;;;;;;;4.00;1.90;;;14.00;99.90;;;;;;5016491;28;20032;-59
2023/05/15 05:04:32;;;;;;;4.07;2.15;;;13.80;99.90;;;;;;5016604;28;20103;-59
2023/05/15 05:06:58;;;;;;;7.20;2.20;;;13.80;99.90;;;;;;5016476;28;20042;-59
2023/05/15 05:09:24;;;;;;;4.07;1.83;;;13.70;99.90;;;;;;5016180;28;20387;-59
2023/05/15 05:11:50;;;;;;;3.97;2.05;;;13.80;99.90;;;;;;5016323;28;20060;-58
2023/05/15 05:14:16;;;;;;;3.65;1.90;;;13.80;99.90;;;;;;5016500;28;20030;-59
2023/05/15 05:16:44;;;;;;;4.03;1.95;;;13.80;99.90;;;;;;5015992;28;20030;-59
2023/05/15 05:19:10;;;;;;;3.00;1.92;;;13.60;99.90;;;;;;5016439;28;20026;-59
2023/05/15 05:21:36;;;;;;;4.93;2.03;;;13.70;99.90;;;;;;5016164;28;20044;-59
2023/05/15 05:24:02;;;;;;;6.70;2.70;;;13.70;99.90;;;;;;5015863;28;20022;-59
2023/05/15 05:26:28;;;;;;;6.70;2.10;;;13.80;99.90;;;;;;5015857;28;20041;-59
2023/05/15 05:28:54;;;;;;;7.60;3.45;;;13.90;99.90;;;;;;5014275;28;20026;-59
2023/05/15 05:31:20;;;;;;;8.50;3.00;;;13.80;99.90;;;;;;5015390;28;20025;-59
2023/05/15 05:33:48;;;;;;;4.15;2.47;;;13.90;99.90;;;;;;5009517;28;20034;-60
2023/05/15 05:36:14;;;;;;;6.65;2.33;;;13.90;99.90;;;;;;5015816;28;20566;-59
2023/05/15 05:38:41;;;;;;;7.63;2.50;;;13.90;99.90;;;;;;5015964;28;20072;-58
2023/05/15 05:41:07;;;;;;;6.72;2.67;;;13.90;99.90;;;;;;5015626;28;20022;-59
2023/05/15 05:43:33;;;;;;;4.68;1.70;;;13.80;99.90;;;;;;5015661;28;20387;-60
2023/05/15 05:45:58;;;;;;;9.63;2.47;;;13.60;99.90;;;;;;5012430;28;20033;-59
2023/05/15 05:48:25;;;;;;;6.60;3.17;;;13.80;99.90;;;;;;5005411;28;20057;-59
2023/05/15 05:50:51;;;;;;;5.55;2.95;;;14.00;99.90;;;;;;5011373;28;20037;-59
2023/05/15 05:53:17;;;;;;;4.82;3.03;;;14.10;99.90;;;;;;5015049;28;20037;-59
2023/05/15 05:55:43;;;;;;;13.65;4.78;;;14.20;99.90;;;;;;4997727;28;20026;-59
2023/05/15 05:58:09;;;;;;;11.35;5.70;;;14.30;99.90;;;;;;5014920;28;20537;-59
2023/05/15 06:00:35;;;;;;;10.48;5.43;;;14.30;99.90;;;;;;5011595;28;20038;-60
2023/05/15 06:03:02;;;;;;;11.20;5.35;;;14.30;99.90;;;;;;5006624;28;20037;-59
2023/05/15 06:05:28;;;;;;;18.45;6.55;;;14.30;99.90;;;;;;5011872;28;20032;-61
2023/05/15 06:07:54;;;;;;;24.63;8.15;;;14.40;99.90;;;;;;5003945;28;20468;-59
2023/05/15 06:10:20;;;;;;;15.65;6.43;;;14.40;99.90;;;;;;5001196;28;20057;-61
2023/05/15 06:12:47;;;;;;;6.07;3.45;;;14.40;99.90;;;;;;5014765;28;20037;-61
2023/05/15 06:15:16;;;;;;;9.90;4.22;;;14.40;99.90;;;;;;5013672;28;20045;-61
2023/05/15 06:17:41;;;;;;;7.60;3.85;;;14.40;99.90;;;;;;5015025;28;20028;-61
2023/05/15 06:20:08;;;;;;;6.25;3.85;;;14.50;99.90;;;;;;5008316;28;20034;-61
2023/05/15 06:22:37;;;;;;;7.15;3.28;;;14.60;99.90;;;;;;5010200;28;20053;-61
2023/05/15 06:25:12;;;;;;;8.18;2.92;;;14.70;99.90;;;;;;5013035;28;20486;-61
2023/05/15 06:27:40;;;;;;;6.78;2.90;;;14.70;99.90;;;;;;5007846;28;20076;-60
2023/05/15 06:30:07;;;;;;;4.57;2.97;;;14.80;99.90;;;;;;4994890;28;20030;-60
2023/05/15 06:32:33;;;;;;;4.45;3.03;;;14.90;99.90;;;;;;4996317;28;20034;-60
2023/05/15 06:34:59;;;;;;;6.18;2.65;;;15.00;99.90;;;;;;5014486;28;20379;-60
2023/05/15 06:37:24;;;;;;;3.67;2.28;;;14.90;99.90;;;;;;5012876;28;20083;-60
2023/05/15 06:39:51;;;;;;;8.18;2.15;;;14.90;99.90;;;;;;5021317;28;20029;-60
2023/05/15 06:42:23;;;;;;;14.95;4.38;;;14.90;99.90;;;;;;5017432;28;20658;-61
2023/05/15 06:44:49;;;;;;;10.77;3.42;;;14.90;99.90;;;;;;5014538;28;20037;-60
2023/05/15 06:47:15;;;;;;;7.10;3.10;;;14.80;99.90;;;;;;5014482;28;20033;-60
2023/05/15 06:49:41;;;;;;;6.28;3.00;;;14.80;99.90;;;;;;5014402;28;20486;-61
2023/05/15 06:52:07;;;;;;;5.38;3.25;;;14.90;99.90;;;;;;5014429;28;20108;-60
2023/05/15 06:54:33;;;;;;;5.72;3.22;;;15.10;99.90;;;;;;5014087;28;20026;-61
2023/05/15 06:56:59;;;;;;;13.43;4.57;;;15.10;99.90;;;;;;5014537;28;20053;-60
2023/05/15 06:59:25;;;;;;;5.22;2.90;;;15.20;99.90;;;;;;5014725;28;20030;-60
2023/05/15 07:01:51;;;;;;;4.75;2.50;;;15.20;99.90;;;;;;5014222;28;20036;-60
2023/05/15 07:04:17;;;;;;;9.38;3.15;;;15.20;99.90;;;;;;5012894;28;20029;-60
2023/05/15 07:06:43;;;;;;;4.60;1.48;;;15.40;99.90;;;;;;5011746;28;20073;-60
2023/05/15 07:09:09;;;;;;;8.05;2.58;;;15.30;99.90;;;;;;5013918;28;20372;-60
2023/05/15 07:11:37;;;;;;;6.40;3.13;;;15.40;99.90;;;;;;5014252;28;20041;-60
2023/05/15 07:14:05;;;;;;;5.10;3.08;;;15.60;99.90;;;;;;4998620;28;20026;-60
2023/05/15 07:16:31;;;;;;;10.27;4.05;;;15.70;99.90;;;;;;5007861;28;20038;-60
2023/05/15 07:18:57;;;;;;;12.10;5.00;;;15.90;99.90;;;;;;5018718;28;20034;-61
2023/05/15 07:21:24;;;;;;;8.50;4.10;;;16.00;99.90;;;;;;5007546;28;20038;-62
2023/05/15 07:23:50;;;;;;;8.68;4.18;;;16.30;99.90;;;;;;4998012;28;20465;-61
2023/05/15 07:26:16;;;;;;;7.88;3.08;;;16.40;99.90;;;;;;5007938;28;20029;-60
2023/05/15 07:28:42;;;;;;;3.58;2.25;;;16.60;99.90;;;;;;5009866;28;20073;-61
2023/05/15 07:31:08;;;;;;;6.50;2.20;;;16.90;99.90;;;;;;5011611;28;20133;-61
2023/05/15 07:33:34;;;;;;;2.60;1.85;;;17.10;99.90;;;;;;5006495;28;20140;-61
2023/05/15 07:36:00;;;;;;;3.60;2.58;;;17.20;99.90;;;;;;5012515;28;20121;-61
2023/05/15 07:38:29;;;;;;;4.78;2.63;;;17.20;99.90;;;;;;5013526;28;20026;-60
2023/05/15 07:40:55;;;;;;;4.13;2.33;;;17.30;99.90;;;;;;5013660;28;20030;-61
2023/05/15 07:43:21;;;;;;;7.45;3.15;;;17.30;99.90;;;;;;5013966;28;20529;-61
2023/05/15 07:45:47;;;;;;;7.70;2.97;;;17.50;99.90;;;;;;5013266;28;20076;-61
2023/05/15 07:48:14;;;;;;;7.55;4.00;;;17.60;99.90;;;;;;5008487;28;20025;-61
2023/05/15 07:50:40;;;;;;;5.80;3.08;;;17.80;99.90;;;;;;5022216;28;20060;-61
2023/05/15 07:53:06;;;;;;;5.60;3.28;;;17.80;99.90;;;;;;5027423;28;20037;-61
2023/05/15 07:55:32;;;;;;;5.78;3.40;;;17.50;99.90;;;;;;5033282;28;20022;-61
2023/05/15 07:57:58;;;;;;;4.70;3.17;;;17.70;99.90;;;;;;5017747;28;20026;-61
2023/05/15 08:00:24;;;;;;;3.50;2.25;;;18.00;99.90;;;;;;5013779;28;20029;-61
2023/05/15 08:02:50;;;;;;;9.52;4.75;;;18.10;99.90;;;;;;5012756;28;20029;-60
2023/05/15 08:05:16;;;;;;;6.75;3.35;;;18.20;99.90;;;;;;5013875;28;20030;-61
2023/05/15 08:07:42;;;;;;;7.00;3.85;;;18.40;99.90;;;;;;5011857;28;20439;-60
2023/05/15 08:10:08;;;;;;;6.97;3.10;;;18.50;99.90;;;;;;5014183;28;20030;-60
2023/05/15 08:12:35;;;;;;;5.05;2.90;;;18.30;99.90;;;;;;5011901;28;20087;-60
2023/05/15 08:15:01;;;;;;;4.95;3.58;;;18.00;99.90;;;;;;5013762;28;20029;-60
2023/05/15 08:17:27;;;;;;;6.95;3.70;;;18.00;99.90;;;;;;5014755;28;20030;-61
2023/05/15 08:19:54;;;;;;;6.97;3.65;;;18.20;99.90;;;;;;5016929;28;20079;-61
2023/05/15 08:22:20;;;;;;;5.10;2.70;;;17.70;99.90;;;;;;5016835;28;20022;-61
2023/05/15 08:24:46;;;;;;;1.30;0.95;;;17.50;99.90;;;;;;5017201;28;20036;-60
2023/05/15 08:27:12;;;;;;;4.60;1.38;;;17.10;99.90;;;;;;5017020;28;20026;-61
2023/05/15 08:29:39;;;;;;;4.38;1.40;;;17.40;99.90;;;;;;5016333;28;20046;-61
2023/05/15 08:32:06;;;;;;;2.42;0.90;;;17.20;99.90;;;;;;5015099;28;20092;-61
2023/05/15 08:34:32;;;;;;;2.97;1.35;;;17.10;99.90;;;;;;5010448;28;20075;-61
2023/05/15 08:36:58;;;;;;;4.43;1.25;;;16.90;99.90;;;;;;5016783;28;20085;-61
2023/05/15 08:39:24;;;;;;;6.47;1.67;;;17.00;99.90;;;;;;4999033;28;20033;-61
2023/05/15 08:42:09;;;;;;;4.40;2.00;;;16.90;99.90;;;;;;5016525;28;20491;-60
2023/05/15 08:44:36;;;;;;;3.03;1.17;;;17.30;99.90;;;;;;5016603;28;20021;-60
2023/05/15 08:47:06;;;;;;;2.35;1.10;;;17.30;99.90;;;;;;5013597;28;20046;-61
2023/05/15 08:49:59;;;;;;;2.17;0.85;;;17.30;99.90;;;;;;5013982;28;20034;-61
2023/05/15 08:52:25;;;;;;;3.10;1.48;;;17.10;99.90;;;;;;5014926;28;20070;-61
2023/05/15 08:54:52;;;;;;;9.40;2.17;;;17.10;99.90;;;;;;5011715;28;20034;-60
2023/05/15 08:57:18;;;;;;;14.32;6.20;;;17.30;99.90;;;;;;5005137;28;20045;-60
2023/05/15 08:59:45;;;;;;;12.10;3.40;;;17.40;99.90;;;;;;4998896;28;20034;-60
2023/05/15 09:02:11;;;;;;;19.33;8.35;;;17.50;99.90;;;;;;5016225;28;20057;-60
2023/05/15 09:04:37;;;;;;;17.23;7.30;;;17.50;99.90;;;;;;5014235;28;20030;-60
2023/05/15 09:07:04;;;;;;;20.33;8.57;;;17.50;99.90;;;;;;5015636;28;20401;-60
2023/05/15 09:09:33;;;;;;;15.45;5.90;;;17.30;99.90;;;;;;5015404;28;20033;-60
2023/05/15 09:12:04;;;;;;;11.02;4.38;;;17.40;99.90;;;;;;5008439;28;20115;-60
2023/05/15 09:14:29;;;;;;;;;;;17.20;99.90;;;;;;5015373;28;20442;-60
2023/05/15 09:16:57;;;;;;;6.82;2.80;;;16.90;99.90;;;;;;5015835;28;20000;-60
2023/05/15 09:19:23;;;;;;;6.30;2.72;;;17.00;99.90;;;;;;5015638;28;20060;-60
2023/05/15 09:21:49;;;;;;;6.03;2.33;;;16.90;99.90;;;;;;5016053;28;20394;-60
2023/05/15 09:24:23;;;;;;;11.80;4.60;;;16.80;99.90;;;;;;5015569;28;20505;-61
2023/05/15 09:27:04;;;;;;;6.60;2.97;;;16.80;99.90;;;;;;5012045;28;20030;-60
2023/05/15 09:29:31;;;;;;;4.47;2.30;;;16.80;99.90;;;;;;5016053;28;20053;-61
2023/05/15 09:32:21;;;;;;;5.43;2.25;;;16.90;99.90;;;;;;5015796;28;20034;-60
2023/05/15 09:34:47;;;;;;;5.03;2.40;;;16.80;99.90;;;;;;5015301;28;20048;-61
2023/05/15 09:37:31;;;;;;;6.10;3.50;;;17.10;99.90;;;;;;5015881;28;20097;-60
2023/05/15 09:40:09;;;;;;;7.82;4.50;;;17.10;99.90;;;;;;5014270;28;20429;-60
2023/05/15 09:42:38;;;;;;;79.40;28.27;;;17.00;99.90;;;;;;5021665;28;20468;-60
2023/05/15 09:45:05;;;;;;;44.20;17.25;;;16.90;99.90;;;;;;5013613;28;20026;-61
2023/05/15 09:47:31;;;;;;;15.95;8.00;;;17.00;99.90;;;;;;5022316;28;20472;-60
2023/05/15 09:49:57;;;;;;;12.32;4.93;;;17.10;99.90;;;;;;5011737;28;20053;-61
2023/05/15 09:52:27;;;;;;;16.20;6.90;;;17.20;99.90;;;;;;5014397;28;20018;-60
2023/05/15 09:54:53;;;;;;;16.37;5.33;;;17.20;99.90;;;;;;5012034;28;20379;-61
2023/05/15 09:57:22;;;;;;;7.70;3.35;;;17.20;99.90;;;;;;5014152;28;20061;-61
2023/05/15 09:59:48;;;;;;;20.65;13.13;;;17.00;99.90;;;;;;5014724;28;20032;-61
2023/05/15 10:02:35;;;;;;;63.38;42.55;;;16.90;99.90;;;;;;5013456;28;20058;-61
2023/05/15 10:05:01;;;;;;;21.05;14.55;;;16.90;99.90;;;;;;5004229;28;20033;-62
2023/05/15 10:07:33;;;;;;;10.93;7.43;;;17.10;99.90;;;;;;4994106;28;20039;-61
2023/05/15 10:10:01;;;;;;;6.05;3.70;;;17.20;99.90;;;;;;4994897;28;20507;-61
2023/05/15 10:12:30;;;;;;;12.05;3.47;;;17.40;99.90;;;;;;5016595;28;20091;-61
2023/05/15 10:15:06;;;;;;;7.00;3.92;;;17.30;99.90;;;;;;5025095;28;20022;-60
2023/05/15 10:17:35;;;;;;;7.63;2.38;;;17.40;99.90;;;;;;4997528;28;20029;-61
2023/05/15 10:20:05;;;;;;;3.67;2.38;;;17.50;99.90;;;;;;5014929;28;20069;-61
2023/05/15 10:22:37;;;;;;;10.55;6.85;;;17.40;99.90;;;;;;5013493;28;20129;-61
2023/05/15 10:25:32;;;;;;;17.27;9.88;;;17.40;99.90;;;;;;5013019;28;20081;-61
2023/05/15 10:27:59;;;;;;;12.40;7.57;;;17.40;99.90;;;;;;5004161;28;20092;-61
2023/05/15 10:30:27;;;;;;;7.35;3.63;;;17.40;99.90;;;;;;5001922;28;20112;-61
2023/05/15 10:32:55;;;;;;;2.65;2.10;;;17.60;99.90;;;;;;5011363;28;20042;-61
2023/05/15 10:35:22;;;;;;;6.43;3.63;;;17.70;99.90;;;;;;4986008;28;20034;-61
2023/05/15 10:37:48;;;;;;;9.57;4.88;;;17.50;99.90;;;;;;5005488;28;20092;-61
2023/05/15 10:40:16;;;;;;;25.58;14.98;;;17.70;99.90;;;;;;5012130;28;20034;-61
2023/05/15 10:42:47;;;;;;;6.10;3.65;;;17.90;99.90;;;;;;5010670;28;20379;-62
2023/05/15 10:45:13;;;;;;;6.63;4.07;;;17.90;99.90;;;;;;5013052;28;20030;-61
2023/05/15 10:47:44;;;;;;;8.50;6.10;;;18.00;99.90;;;;;;5013400;28;20045;-61
2023/05/15 10:50:11;;;;;;;;;;;17.90;99.90;;;;;;5006987;28;20128;-61
2023/05/15 10:52:37;;;;;;;5.47;2.97;;;18.00;99.90;;;;;;5006657;28;19914;-61
2023/05/15 10:55:13;;;;;;;3.92;2.10;;;18.00;99.90;;;;;;5008400;28;20056;-61
2023/05/15 10:57:45;;;;;;;7.07;3.50;;;17.70;99.90;;;;;;5008702;28;20068;-61
2023/05/15 11:00:22;;;;;;;4.88;2.30;;;17.60;99.90;;;;;;5002594;28;20357;-60
2023/05/15 11:02:52;;;;;;;5.82;2.70;;;17.50;99.90;;;;;;5007658;28;20168;-61
2023/05/15 11:05:18;;;;;;;3.33;1.65;;;17.60;99.90;;;;;;5014385;28;20386;-61
2023/05/15 11:08:24;;;;;;;2.38;1.52;;;17.70;99.90;;;;;;5012961;28;20045;-61
2023/05/15 11:10:52;;;;;;;6.07;1.98;;;17.60;99.90;;;;;;5013808;28;20121;-61
2023/05/15 11:13:17;;;;;;;7.65;2.17;;;17.70;99.90;;;;;;5008188;28;20072;-61
2023/05/15 11:15:45;;;;;;;10.35;3.08;;;17.70;99.90;;;;;;5012457;28;20077;-61
2023/05/15 11:18:12;;;;;;;9.00;3.85;;;17.90;99.90;;;;;;5014329;28;20387;-61
2023/05/15 11:20:38;;;;;;;8.40;3.00;;;18.10;99.90;;;;;;5013936;28;20044;-61
2023/05/15 11:23:04;;;;;;;7.70;3.90;;;18.20;99.90;;;;;;5014653;28;20456;-61
2023/05/15 11:25:33;;;;;;;8.93;3.63;;;18.30;99.90;;;;;;5014051;28;20061;-61
2023/05/15 11:27:59;;;;;;;6.95;2.22;;;18.20;99.90;;;;;;5011343;28;20083;-61
2023/05/15 11:30:38;;;;;;;14.10;2.55;;;18.30;99.90;;;;;;5014012;28;20487;-61
2023/05/15 11:33:10;;;;;;;12.65;4.70;;;18.40;99.90;;;;;;5013732;28;20029;-61
2023/05/15 11:35:38;;;;;;;7.30;1.65;;;18.40;99.90;;;;;;5014074;28;20037;-61
2023/05/15 11:38:13;;;;;;;3.20;1.20;;;18.30;99.90;;;;;;5013476;28;20026;-61
2023/05/15 11:40:55;;;;;;;10.65;1.60;;;18.20;99.90;;;;;;5013947;28;20038;-61
2023/05/15 11:43:26;;;;;;;9.30;2.13;;;18.00;99.90;;;;;;5011881;28;20022;-61
2023/05/15 11:46:08;;;;;;;8.88;2.55;;;17.90;99.90;;;;;;5013745;28;20372;-61
2023/05/15 11:48:42;;;;;;;13.35;3.00;;;18.20;99.90;;;;;;5027748;28;20026;-60
2023/05/15 11:51:28;;;;;;;13.82;4.18;;;18.30;99.90;;;;;;5005798;28;20120;-61
2023/05/15 11:53:55;;;;;;;7.22;2.78;;;18.40;99.90;;;;;;5012576;28;20034;-61
2023/05/15 11:56:29;;;;;;;5.18;1.95;;;18.30;99.90;;;;;;5011134;28;20030;-61
2023/05/15 11:58:57;;;;;;;4.18;1.77;;;18.30;99.90;;;;;;5017321;28;20025;-61
2023/05/15 12:02:02;;;;;;;6.68;2.55;;;18.10;99.90;;;;;;5016534;28;20105;-61
2023/05/15 12:04:28;;;;;;;3.90;1.70;;;18.00;99.90;;;;;;5014269;28;20037;-61
2023/05/15 12:06:54;;;;;;;8.20;1.98;;;17.90;99.90;;;;;;5016449;28;20045;-61
2023/05/15 12:09:21;;;;;;;7.30;2.35;;;17.70;99.90;;;;;;5016686;28;20475;-61
2023/05/15 12:11:51;;;;;;;2.35;1.42;;;17.60;99.90;;;;;;5014989;28;20032;-61
2023/05/15 12:14:27;;;;;;;3.05;1.40;;;17.70;99.90;;;;;;5015957;28;20044;-61
2023/05/15 12:17:00;;;;;;;2.22;1.50;;;17.50;99.90;;;;;;5015995;28;20037;-61
2023/05/15 12:19:36;;;;;;;3.20;1.50;;;17.50;99.90;;;;;;5015479;28;20041;-61
2023/05/15 12:22:07;;;;;;;8.30;1.50;;;17.50;99.90;;;;;;5010619;28;20029;-61
2023/05/15 12:24:38;;;;;;;2.95;1.60;;;17.50;99.90;;;;;;5014342;28;20026;-60
2023/05/15 12:27:09;;;;;;;6.45;2.47;;;17.50;99.90;;;;;;5002734;28;20059;-61
2023/05/15 12:29:36;;;;;;;3.70;1.67;;;17.60;99.90;;;;;;5016610;28;20030;-61
2023/05/15 12:32:02;;;;;;;2.67;1.95;;;17.70;99.90;;;;;;5016598;28;20025;-61
2023/05/15 12:34:28;;;;;;;3.92;2.10;;;17.60;99.90;;;;;;5015724;28;20076;-60
2023/05/15 12:36:54;;;;;;;5.43;2.67;;;17.50;99.90;;;;;;5016395;28;20431;-61
2023/05/15 12:39:20;;;;;;;20.00;4.72;;;17.50;99.90;;;;;;5014353;28;20030;-61
2023/05/15 12:41:48;;;;;;;9.52;4.43;;;17.40;99.90;;;;;;5017156;28;20044;-61
2023/05/15 12:44:17;;;;;;;8.15;3.55;;;17.40;99.90;;;;;;5016507;28;20026;-61
2023/05/15 12:46:46;;;;;;;8.32;3.35;;;17.40;99.90;;;;;;5015639;28;20133;-61
2023/05/15 12:49:12;;;;;;;10.35;4.10;;;17.30;99.90;;;;;;5016421;28;20068;-61
2023/05/15 12:51:42;;;;;;;9.57;4.68;;;17.20;99.90;;;;;;5016216;28;20112;-60